Time;durP1;ratioP1;P1;durP2;ratioP2;P2;SDS_P1;SDS_P2;PMS_P1;PMS_P2;Temp;Humidity;BMP_temperature;BMP_pressure;BME280_temperature;BME280_humidity;BME280_pressure;Samples;Min_cycle;Max_cycle;Signal;HPM_P1;HPM_P2
2022/12/09 00:01:39;;;;;;;12.37;9.27;;;0.10;99.90;;;;;;5054045;28;20194;-71
2022/12/09 00:04:04;;;;;;;15.73;9.40;;;0.00;99.90;;;;;;5052631;28;20225;-71
2022/12/09 00:06:30;;;;;;;14.50;9.80;;;0.10;99.90;;;;;;5053291;28;20615;-71
2022/12/09 00:08:56;;;;;;;19.73;10.40;;;0.10;99.90;;;;;;5053938;28;20192;-71
2022/12/09 00:11:23;;;;;;;14.95;9.90;;;0.10;99.90;;;;;;5052533;28;20490;-71
2022/12/09 00:13:54;;;;;;;20.73;9.82;;;0.10;99.90;;;;;;5052408;28;20195;-71
2022/12/09 00:16:20;;;;;;;13.02;10.02;;;0.10;99.90;;;;;;5053075;28;20201;-71
2022/12/09 00:18:47;;;;;;;17.50;10.15;;;0.00;99.90;;;;;;5052723;28;20178;-71
2022/12/09 00:21:27;;;;;;;16.20;9.85;;;0.10;99.90;;;;;;5053715;28;20665;-71
2022/12/09 00:23:55;;;;;;;20.48;11.05;;;0.10;99.90;;;;;;5053513;28;20332;-72
2022/12/09 00:26:22;;;;;;;15.52;9.13;;;0.10;99.90;;;;;;5052884;28;20676;-71
2022/12/09 00:28:49;;;;;;;17.10;9.68;;;0.20;99.90;;;;;;5053551;28;20171;-71
2022/12/09 00:31:17;;;;;;;14.88;7.60;;;0.20;99.90;;;;;;5053521;28;20197;-71
2022/12/09 00:33:43;;;;;;;15.27;10.88;;;0.20;99.90;;;;;;5053591;28;20198;-72
2022/12/09 00:36:18;;;;;;;17.63;10.70;;;0.30;99.90;;;;;;5052854;28;20174;-71
2022/12/09 00:38:44;;;;;;;14.40;10.65;;;0.30;99.90;;;;;;5053487;28;20189;-71
2022/12/09 00:41:11;;;;;;;14.82;10.60;;;0.20;99.90;;;;;;5053452;28;20198;-71
2022/12/09 00:43:37;;;;;;;18.63;9.40;;;0.30;99.90;;;;;;5053438;28;20170;-71
2022/12/09 00:46:03;;;;;;;17.90;11.00;;;0.30;99.90;;;;;;5052842;28;20220;-72
2022/12/09 00:48:29;;;;;;;18.05;10.98;;;0.40;99.90;;;;;;5053147;28;20159;-71
2022/12/09 00:50:55;;;;;;;12.43;7.95;;;0.40;99.90;;;;;;5053400;28;20265;-71
2022/12/09 00:53:21;;;;;;;13.07;8.57;;;0.40;99.90;;;;;;5053289;28;20198;-71
2022/12/09 00:55:47;;;;;;;15.63;10.10;;;0.50;99.90;;;;;;5051668;28;20747;-71
2022/12/09 00:58:13;;;;;;;19.43;9.90;;;0.50;99.90;;;;;;5053278;28;20175;-71
2022/12/09 01:00:39;;;;;;;16.45;10.18;;;0.50;99.90;;;;;;5051926;28;20226;-71
2022/12/09 01:03:06;;;;;;;15.30;9.38;;;0.50;99.90;;;;;;5052248;28;20167;-71
2022/12/09 01:05:34;;;;;;;16.27;9.05;;;0.50;99.90;;;;;;5052414;28;20329;-71
2022/12/09 01:08:00;;;;;;;11.20;8.27;;;0.60;99.90;;;;;;5053165;28;20171;-71
2022/12/09 01:10:26;;;;;;;10.27;7.30;;;0.50;99.90;;;;;;5051727;28;20638;-71
2022/12/09 01:12:51;;;;;;;13.87;8.30;;;0.60;99.90;;;;;;5053048;28;20182;-71
2022/12/09 01:15:17;;;;;;;7.13;6.13;;;0.60;99.90;;;;;;5051218;28;20436;-71
2022/12/09 01:17:43;;;;;;;7.60;5.77;;;0.50;99.90;;;;;;5052011;28;20531;-71
2022/12/09 01:20:09;;;;;;;9.20;6.47;;;0.40;99.90;;;;;;5052971;28;20183;-72
2022/12/09 01:22:36;;;;;;;12.43;8.50;;;0.40;99.90;;;;;;5052862;28;20572;-72
2022/12/09 01:25:02;;;;;;;13.65;7.82;;;0.50;99.90;;;;;;5052190;28;20262;-71
2022/12/09 01:27:31;;;;;;;13.55;7.53;;;0.50;99.90;;;;;;5052954;28;20242;-71
2022/12/09 01:29:57;;;;;;;12.73;8.50;;;0.50;99.90;;;;;;5051916;28;20175;-71
2022/12/09 01:32:23;;;;;;;12.93;8.13;;;0.50;99.90;;;;;;5052870;28;20179;-71
2022/12/09 01:34:48;;;;;;;18.40;11.90;;;0.60;99.90;;;;;;5050902;28;20566;-71
2022/12/09 01:37:14;;;;;;;14.07;8.43;;;0.60;99.90;;;;;;5052982;28;20405;-71
2022/12/09 01:39:40;;;;;;;10.70;7.67;;;0.60;99.90;;;;;;5051546;28;20202;-71
2022/12/09 01:42:16;;;;;;;14.32;8.40;;;0.60;99.90;;;;;;5051881;28;20803;-71
2022/12/09 01:45:20;;;;;;;13.10;7.07;;;0.60;99.90;;;;;;5051708;28;20210;-71
2022/12/09 01:48:27;;;;;;;7.60;6.60;;;0.60;99.90;;;;;;5052672;28;20241;-72
2022/12/09 01:51:00;;;;;;;7.85;5.97;;;0.60;99.90;;;;;;5052281;28;20250;-71
2022/12/09 01:53:29;;;;;;;8.23;6.95;;;0.60;99.90;;;;;;5051691;28;20640;-72
2022/12/09 01:56:00;;;;;;;6.15;5.47;;;0.60;99.90;;;;;;5051069;28;20174;-72
2022/12/09 01:58:26;;;;;;;8.57;6.22;;;0.60;99.90;;;;;;5051469;28;20179;-72
2022/12/09 02:00:52;;;;;;;9.10;7.45;;;0.60;99.90;;;;;;5055315;28;20256;-71
2022/12/09 02:03:18;;;;;;;9.40;5.57;;;0.60;99.90;;;;;;5056343;28;20527;-71
2022/12/09 02:05:44;;;;;;;12.10;7.40;;;0.50;99.90;;;;;;5055353;28;20237;-71
2022/12/09 02:08:17;;;;;;;6.82;5.70;;;0.50;99.90;;;;;;5056073;28;20174;-71
2022/12/09 02:10:55;;;;;;;14.15;7.13;;;0.50;99.90;;;;;;5055957;28;20181;-72
2022/12/09 02:13:34;;;;;;;10.95;6.95;;;0.50;99.90;;;;;;5055008;28;20564;-72
2022/12/09 02:16:04;;;;;;;18.15;6.78;;;0.50;99.90;;;;;;5055441;28;20205;-72
2022/12/09 02:18:50;;;;;;;11.85;8.45;;;0.50;99.90;;;;;;5055867;28;20224;-71
2022/12/09 02:21:58;;;;;;;10.00;7.72;;;0.50;99.90;;;;;;5055770;28;20550;-71
2022/12/09 02:24:49;;;;;;;9.35;5.78;;;0.50;1.00;;;;;;5041086;28;20567;-70
2022/12/09 02:27:39;;;;;;;16.08;7.40;;;0.50;1.00;;;;;;5054584;28;20267;-71
2022/12/09 02:30:14;;;;;;;13.27;7.22;;;0.40;1.00;;;;;;5055735;28;20167;-71
2022/12/09 02:32:46;;;;;;;15.88;9.45;;;0.40;1.00;;;;;;5055738;28;20163;-71
2022/12/09 02:35:19;;;;;;;9.93;7.35;;;0.50;1.00;;;;;;5054743;28;20651;-72
2022/12/09 02:38:05;;;;;;;8.32;6.70;;;0.50;1.00;;;;;;5055608;28;20175;-71
2022/12/09 02:40:44;;;;;;;14.40;8.52;;;0.60;1.00;;;;;;5055795;28;20257;-71
2022/12/09 02:43:12;;;;;;;10.63;8.23;;;0.50;1.00;;;;;;5055407;28;20609;-73
2022/12/09 02:45:41;;;;;;;10.70;7.00;;;0.50;1.00;;;;;;5054665;28;20198;-72
2022/12/09 02:48:09;;;;;;;12.00;7.80;;;0.50;1.00;;;;;;5055726;28;20159;-72
2022/12/09 02:50:37;;;;;;;13.30;8.80;;;0.50;1.00;;;;;;5055462;28;20163;-72
2022/12/09 02:53:07;;;;;;;15.43;9.43;;;0.50;1.00;;;;;;5055394;28;20167;-72
2022/12/09 02:55:34;;;;;;;14.30;8.90;;;0.60;1.00;;;;;;5054478;28;20191;-71
2022/12/09 02:58:01;;;;;;;14.48;8.00;;;0.50;1.00;;;;;;5055410;28;20528;-71
2022/12/09 03:00:27;;;;;;;13.55;7.57;;;0.50;1.00;;;;;;5053900;28;20282;-71
2022/12/09 03:02:56;;;;;;;14.32;7.20;;;0.40;1.00;;;;;;5053904;28;20194;-71
2022/12/09 03:05:27;;;;;;;13.23;7.75;;;0.40;1.00;;;;;;5054149;28;20264;-72
2022/12/09 03:08:09;;;;;;;14.65;9.00;;;0.40;1.00;;;;;;5055167;28;20175;-71
2022/12/09 03:11:00;;;;;;;13.10;7.97;;;0.40;1.00;;;;;;5053887;28;20171;-71
2022/12/09 03:13:51;;;;;;;11.27;6.78;;;0.40;1.00;;;;;;5054791;28;20254;-71
2022/12/09 03:16:30;;;;;;;12.38;8.02;;;0.30;1.00;;;;;;5054241;28;20166;-71
2022/12/09 03:19:04;;;;;;;8.95;5.40;;;0.30;1.00;;;;;;5054731;28;20178;-72
2022/12/09 03:21:32;;;;;;;12.13;7.10;;;0.30;1.00;;;;;;5054580;28;20195;-72
2022/12/09 03:24:00;;;;;;;12.32;6.60;;;0.30;1.00;;;;;;5054615;28;20186;-72
2022/12/09 03:26:29;;;;;;;11.93;6.78;;;0.20;1.00;;;;;;5054073;28;20590;-72
2022/12/09 03:28:56;;;;;;;10.60;6.68;;;0.20;1.00;;;;;;5054619;28;20646;-72
2022/12/09 03:31:25;;;;;;;17.02;7.38;;;0.30;1.00;;;;;;5054588;28;20218;-71
2022/12/09 03:33:56;;;;;;;12.93;8.48;;;0.20;1.00;;;;;;5053335;28;20234;-72
2022/12/09 03:36:25;;;;;;;15.88;7.20;;;0.30;1.00;;;;;;5053803;28;20178;-71
2022/12/09 03:38:52;;;;;;;12.60;8.15;;;0.30;1.00;;;;;;5054507;28;20170;-71
2022/12/09 03:41:24;;;;;;;11.38;7.40;;;0.30;1.00;;;;;;5054527;28;20704;-71
2022/12/09 03:43:53;;;;;;;11.98;7.97;;;0.30;1.00;;;;;;5053306;28;20608;-72
2022/12/09 03:46:21;;;;;;;12.63;8.25;;;0.40;1.00;;;;;;5053607;28;20666;-71
2022/12/09 03:48:47;;;;;;;12.77;8.10;;;0.40;1.00;;;;;;5054390;28;20245;-71
2022/12/09 03:51:27;;;;;;;16.95;9.20;;;0.40;1.00;;;;;;5054340;28;20250;-71
2022/12/09 03:53:57;;;;;;;11.15;6.75;;;0.50;1.00;;;;;;5054024;28;20559;-71
2022/12/09 03:56:29;;;;;;;18.45;10.30;;;0.40;1.00;;;;;;5052266;28;20178;-70
2022/12/09 03:58:59;;;;;;;17.08;9.70;;;0.40;1.00;;;;;;5054046;28;20199;-70
2022/12/09 04:01:27;;;;;;;15.82;8.35;;;0.30;1.00;;;;;;5052663;28;20562;-71
2022/12/09 04:03:55;;;;;;;15.80;9.60;;;0.20;1.00;;;;;;5053883;28;20217;-70
2022/12/09 04:06:21;;;;;;;14.65;9.40;;;0.20;1.00;;;;;;5053265;28;20182;-71
2022/12/09 04:08:47;;;;;;;14.18;8.27;;;0.20;1.00;;;;;;5054031;28;20164;-72
2022/12/09 04:11:13;;;;;;;9.17;7.10;;;0.20;1.00;;;;;;5052808;28;20175;-70
2022/12/09 04:13:39;;;;;;;15.43;9.13;;;0.20;1.00;;;;;;5052718;28;20185;-72
2022/12/09 04:16:05;;;;;;;15.60;9.37;;;0.20;1.00;;;;;;5051792;28;20273;-71
2022/12/09 04:18:31;;;;;;;16.77;10.53;;;0.20;1.00;;;;;;5053955;28;20205;-70
2022/12/09 04:20:57;;;;;;;19.40;9.93;;;0.10;1.00;;;;;;5053750;28;20441;-70
2022/12/09 04:23:23;;;;;;;13.23;7.67;;;0.10;1.00;;;;;;5053127;28;20224;-72
2022/12/09 04:25:48;;;;;;;14.60;8.60;;;0.10;1.00;;;;;;5052912;28;20523;-70
2022/12/09 04:28:14;;;;;;;21.70;10.63;;;0.00;1.00;;;;;;5053696;28;20202;-72
2022/12/09 04:30:46;;;;;;;17.43;10.90;;;0.00;4.20;;;;;;5052278;28;20174;-70
2022/12/09 04:33:12;;;;;;;13.80;9.45;;;0.10;11.40;;;;;;5053566;28;20190;-70
2022/12/09 04:35:38;;;;;;;14.00;8.50;;;0.10;32.00;;;;;;5051498;28;20203;-72
2022/12/09 04:38:04;;;;;;;14.40;8.40;;;0.20;60.80;;;;;;5052265;28;20265;-71
2022/12/09 04:40:29;;;;;;;12.30;8.27;;;0.30;72.10;;;;;;5053278;28;20446;-72
2022/12/09 04:42:57;;;;;;;14.43;8.10;;;0.20;73.80;;;;;;5053632;28;20193;-72
2022/12/09 04:45:23;;;;;;;14.88;9.07;;;0.20;73.80;;;;;;5052647;28;20193;-71
2022/12/09 04:47:48;;;;;;;15.00;8.60;;;0.30;73.90;;;;;;5052077;28;20175;-72
2022/12/09 04:50:14;;;;;;;25.53;10.53;;;0.30;88.10;;;;;;5053223;28;20221;-71
2022/12/09 04:52:40;;;;;;;13.10;9.07;;;0.40;95.00;;;;;;5053361;28;20217;-72
2022/12/09 04:55:06;;;;;;;17.27;9.47;;;0.50;99.90;;;;;;5052724;28;20992;-72
2022/12/09 04:57:32;;;;;;;22.05;10.52;;;0.60;99.90;;;;;;5053364;28;20175;-72
2022/12/09 04:59:58;;;;;;;15.40;9.20;;;0.60;99.90;;;;;;5053236;28;20198;-72
2022/12/09 05:02:24;;;;;;;15.83;9.90;;;0.60;99.90;;;;;;5052088;28;20627;-73
2022/12/09 05:04:50;;;;;;;22.50;10.57;;;0.60;99.90;;;;;;5052572;28;20179;-71
2022/12/09 05:07:15;;;;;;;15.27;10.17;;;0.70;99.90;;;;;;5053114;28;20178;-72
2022/12/09 05:09:41;;;;;;;18.70;9.43;;;0.60;99.90;;;;;;5053239;28;20635;-72
2022/12/09 05:12:07;;;;;;;22.13;10.27;;;0.70;99.90;;;;;;5052102;28;20627;-71
2022/12/09 05:14:33;;;;;;;21.45;10.70;;;0.60;99.90;;;;;;5052304;28;20686;-72
2022/12/09 05:17:01;;;;;;;22.60;10.57;;;0.60;99.90;;;;;;5053206;28;20171;-72
2022/12/09 05:19:27;;;;;;;18.08;11.35;;;0.60;99.90;;;;;;5053054;28;20178;-71
2022/12/09 05:21:53;;;;;;;20.20;11.47;;;0.60;98.20;;;;;;5052990;28;20163;-71
2022/12/09 05:24:18;;;;;;;16.60;10.07;;;0.60;93.70;;;;;;5052273;28;20721;-74
2022/12/09 05:26:44;;;;;;;18.80;9.57;;;0.50;91.20;;;;;;5052869;28;20658;-71
2022/12/09 05:29:10;;;;;;;22.97;12.47;;;0.50;90.90;;;;;;5052953;28;20167;-70
2022/12/09 05:31:36;;;;;;;36.30;12.77;;;0.40;84.30;;;;;;5053031;28;20186;-72
2022/12/09 05:34:01;;;;;;;20.00;11.83;;;0.50;87.60;;;;;;5052680;28;20193;-72
2022/12/09 05:36:27;;;;;;;20.70;12.67;;;0.40;86.30;;;;;;5056206;28;20254;-71
2022/12/09 05:38:54;;;;;;;17.63;10.67;;;0.40;90.00;;;;;;5056615;28;20456;-71
2022/12/09 05:41:21;;;;;;;28.38;11.18;;;0.40;90.70;;;;;;5056612;28;20667;-72
2022/12/09 05:43:47;;;;;;;20.02;11.27;;;0.50;89.60;;;;;;5056680;28;20183;-71
2022/12/09 05:46:14;;;;;;;22.40;12.43;;;0.40;86.60;;;;;;5056106;28;20519;-72
2022/12/09 05:48:39;;;;;;;20.35;12.27;;;0.50;85.00;;;;;;5056562;28;20635;-72
2022/12/09 05:51:11;;;;;;;25.00;12.97;;;0.50;90.40;;;;;;5056604;28;20191;-72
2022/12/09 05:53:37;;;;;;;20.05;12.15;;;0.50;91.00;;;;;;5056522;28;20533;-71
2022/12/09 05:56:03;;;;;;;20.30;12.03;;;0.60;91.90;;;;;;5054924;28;20183;-70
2022/12/09 05:58:29;;;;;;;27.47;14.30;;;0.50;87.50;;;;;;5055451;28;20175;-71
2022/12/09 06:00:56;;;;;;;25.47;12.87;;;0.50;84.10;;;;;;5056361;28;20449;-71
2022/12/09 06:03:22;;;;;;;23.55;12.02;;;0.50;74.80;;;;;;5056315;28;20217;-73
2022/12/09 06:05:48;;;;;;;24.40;13.00;;;0.40;73.90;;;;;;5055515;28;20179;-71
2022/12/09 06:08:14;;;;;;;20.07;12.57;;;0.40;72.90;;;;;;5055147;28;20458;-72
2022/12/09 06:10:40;;;;;;;25.00;11.98;;;0.40;56.80;;;;;;5054811;28;20820;-71
2022/12/09 06:13:07;;;;;;;19.05;12.48;;;0.40;68.10;;;;;;5054795;28;20189;-71
2022/12/09 06:15:33;;;;;;;28.48;13.52;;;0.50;72.60;;;;;;5054280;28;20223;-72
2022/12/09 06:17:59;;;;;;;22.10;11.70;;;0.50;73.60;;;;;;5056043;28;20178;-71
2022/12/09 06:20:25;;;;;;;21.27;11.82;;;0.40;69.30;;;;;;5054582;28;20225;-72
2022/12/09 06:22:51;;;;;;;18.53;9.87;;;0.30;53.00;;;;;;5054836;28;20206;-72
2022/12/09 06:25:16;;;;;;;20.07;11.80;;;0.40;62.70;;;;;;5055141;28;20644;-71
2022/12/09 06:27:42;;;;;;;20.80;12.30;;;0.40;63.50;;;;;;5055977;28;20223;-70
2022/12/09 06:30:08;;;;;;;24.73;13.10;;;0.40;56.50;;;;;;5055933;28;20171;-71
2022/12/09 06:32:34;;;;;;;20.15;12.20;;;0.40;50.50;;;;;;5055612;28;20244;-71
2022/12/09 06:35:00;;;;;;;20.73;12.43;;;0.40;47.80;;;;;;5054881;28;20670;-71
2022/12/09 06:37:25;;;;;;;23.00;12.83;;;0.30;25.50;;;;;;5055577;28;20198;-72
2022/12/09 06:39:51;;;;;;;22.60;12.23;;;0.30;25.30;;;;;;5054489;28;20336;-70
2022/12/09 06:42:17;;;;;;;27.23;13.20;;;0.30;27.30;;;;;;5055752;28;20163;-72
2022/12/09 06:44:43;;;;;;;20.13;12.37;;;0.30;24.90;;;;;;5054789;28;20184;-72
2022/12/09 06:47:08;;;;;;;19.53;12.00;;;0.30;25.00;;;;;;5054942;28;20412;-73
2022/12/09 06:49:34;;;;;;;25.27;12.90;;;0.30;22.00;;;;;;5054628;28;20503;-68
2022/12/09 06:52:00;;;;;;;28.50;13.87;;;0.20;23.60;;;;;;5055565;28;20194;-69
2022/12/09 06:54:26;;;;;;;18.77;10.87;;;0.20;16.40;;;;;;5054638;28;20725;-68
2022/12/09 06:56:51;;;;;;;22.80;14.23;;;0.20;19.50;;;;;;5055395;28;20631;-69
2022/12/09 06:59:17;;;;;;;17.73;11.60;;;0.20;24.90;;;;;;5055201;28;20167;-69
2022/12/09 07:01:44;;;;;;;21.17;12.03;;;0.10;13.70;;;;;;5054194;28;20254;-69
2022/12/09 07:04:12;;;;;;;22.60;12.38;;;0.10;15.00;;;;;;5054921;28;20194;-68
2022/12/09 07:06:40;;;;;;;15.32;10.88;;;0.10;26.40;;;;;;5054607;28;20236;-69
2022/12/09 07:09:18;;;;;;;20.92;12.50;;;0.10;20.00;;;;;;5053824;28;20177;-69
2022/12/09 07:11:46;;;;;;;28.73;12.73;;;0.10;23.10;;;;;;5055011;28;20174;-69
2022/12/09 07:14:14;;;;;;;15.98;9.65;;;0.10;24.80;;;;;;5054801;28;20186;-69
2022/12/09 07:16:40;;;;;;;19.55;10.88;;;0.20;25.30;;;;;;5054445;28;20171;-68
2022/12/09 07:19:06;;;;;;;23.60;11.63;;;0.30;26.00;;;;;;5054866;28;20171;-68
2022/12/09 07:21:33;;;;;;;21.30;12.13;;;0.30;25.00;;;;;;5054636;28;20609;-68
2022/12/09 07:24:00;;;;;;;22.88;11.73;;;0.30;25.00;;;;;;5054786;28;20553;-69
2022/12/09 07:26:26;;;;;;;20.42;12.43;;;0.20;16.10;;;;;;5054170;28;20170;-69
2022/12/09 07:28:51;;;;;;;20.10;11.30;;;0.20;14.50;;;;;;5054651;28;20167;-67
2022/12/09 07:31:23;;;;;;;19.83;9.33;;;0.20;12.20;;;;;;5053257;28;20409;-68
2022/12/09 07:33:50;;;;;;;22.25;11.15;;;0.20;8.80;;;;;;5054412;28;20183;-68
2022/12/09 07:36:16;;;;;;;19.88;12.50;;;0.20;10.40;;;;;;5053853;28;20174;-68
2022/12/09 07:38:41;;;;;;;16.20;10.07;;;0.20;12.90;;;;;;5054439;28;20239;-68
2022/12/09 07:41:16;;;;;;;19.00;12.13;;;0.20;7.50;;;;;;5054426;28;20230;-69
2022/12/09 07:43:43;;;;;;;19.17;10.32;;;0.20;1.00;;;;;;5054154;28;20637;-70
2022/12/09 07:46:08;;;;;;;21.90;12.90;;;0.20;3.60;;;;;;5053681;28;20241;-69
2022/12/09 07:48:34;;;;;;;25.70;12.60;;;0.20;1.00;;;;;;5053534;28;20167;-69
2022/12/09 07:51:01;;;;;;;16.55;11.50;;;0.30;8.20;;;;;;5054241;28;20186;-69
2022/12/09 07:53:27;;;;;;;24.70;11.88;;;0.30;6.10;;;;;;5054371;28;20221;-70
2022/12/09 07:55:54;;;;;;;20.67;11.70;;;0.40;10.30;;;;;;5053443;28;20647;-69
2022/12/09 07:58:19;;;;;;;15.38;10.13;;;0.50;13.80;;;;;;5053477;28;20254;-68
2022/12/09 08:00:45;;;;;;;19.30;10.73;;;0.50;6.10;;;;;;5053958;28;20273;-71
2022/12/09 08:03:12;;;;;;;19.50;11.20;;;0.50;2.70;;;;;;5054150;28;20246;-68
2022/12/09 08:05:58;;;;;;;17.58;10.68;;;0.50;1.00;;;;;;5053184;28;20193;-69
2022/12/09 08:08:25;;;;;;;19.02;11.23;;;0.60;1.00;;;;;;5053942;28;20679;-69
2022/12/09 08:10:51;;;;;;;18.20;11.20;;;0.50;1.00;;;;;;5053851;28;20182;-69
2022/12/09 08:13:17;;;;;;;17.33;12.10;;;0.60;1.00;;;;;;5053990;28;20175;-68
2022/12/09 08:15:42;;;;;;;19.83;11.40;;;0.70;1.00;;;;;;5053152;28;20193;-70
2022/12/09 08:18:08;;;;;;;18.87;11.87;;;0.80;1.00;;;;;;5053805;28;20249;-70
2022/12/09 08:20:35;;;;;;;33.63;14.33;;;0.80;1.00;;;;;;5052629;28;20199;-68
2022/12/09 08:23:01;;;;;;;20.65;12.40;;;0.80;1.00;;;;;;5053825;28;20702;-68
2022/12/09 08:25:26;;;;;;;18.27;11.97;;;0.80;1.00;;;;;;5052970;28;20229;-68
2022/12/09 08:27:52;;;;;;;20.97;11.27;;;0.80;1.00;;;;;;5053625;28;20176;-68
2022/12/09 08:30:18;;;;;;;19.53;12.67;;;0.90;1.00;;;;;;5053595;28;20182;-68
2022/12/09 08:32:43;;;;;;;29.83;12.80;;;0.90;1.00;;;;;;5052569;28;20185;-68
2022/12/09 08:35:13;;;;;;;22.47;13.20;;;0.90;1.00;;;;;;5052916;28;20186;-68
2022/12/09 08:37:43;;;;;;;21.88;12.02;;;0.90;1.00;;;;;;5053374;28;20631;-68
2022/12/09 08:40:10;;;;;;;30.83;14.52;;;0.90;1.00;;;;;;5053199;28;20286;-68
2022/12/09 08:42:36;;;;;;;22.60;13.30;;;0.90;1.00;;;;;;5053550;28;20170;-68
2022/12/09 08:45:03;;;;;;;23.17;12.02;;;0.90;1.00;;;;;;5052615;28;20191;-68
2022/12/09 08:47:29;;;;;;;18.05;11.95;;;1.00;1.00;;;;;;5053312;28;20166;-68
2022/12/09 08:49:54;;;;;;;23.43;12.90;;;0.90;1.00;;;;;;5053393;28;20543;-68
2022/12/09 08:52:20;;;;;;;24.17;13.50;;;1.00;1.00;;;;;;5053190;28;20190;-68
2022/12/09 08:54:46;;;;;;;27.73;12.13;;;1.00;1.00;;;;;;5052796;28;20215;-68
2022/12/09 08:57:12;;;;;;;22.05;12.82;;;1.10;1.00;;;;;;5053488;28;20635;-68
2022/12/09 08:59:38;;;;;;;24.17;13.30;;;1.10;1.00;;;;;;5053239;28;20213;-68
2022/12/09 09:02:03;;;;;;;21.50;14.40;;;1.20;1.00;;;;;;5051900;28;20170;-68
2022/12/09 09:04:30;;;;;;;25.90;14.67;;;1.20;1.00;;;;;;5051197;28;20191;-68
2022/12/09 09:06:56;;;;;;;27.23;14.35;;;1.20;1.00;;;;;;5053141;28;20639;-68
2022/12/09 09:09:22;;;;;;;21.50;13.80;;;1.30;1.00;;;;;;5055612;28;20186;-68
2022/12/09 09:11:48;;;;;;;24.20;13.20;;;1.30;1.00;;;;;;5057388;28;20624;-68
2022/12/09 09:14:14;;;;;;;26.30;14.13;;;1.40;1.00;;;;;;5055620;28;20452;-68
2022/12/09 09:16:42;;;;;;;28.13;15.60;;;1.40;1.00;;;;;;5056698;28;20623;-68
2022/12/09 09:19:16;;;;;;;26.80;14.50;;;1.40;1.00;;;;;;5057249;28;20397;-68
2022/12/09 09:21:42;;;;;;;24.58;16.10;;;1.40;1.00;;;;;;5056989;28;20208;-68
2022/12/09 09:24:10;;;;;;;30.03;14.87;;;1.40;1.00;;;;;;5056794;28;20253;-69
2022/12/09 09:26:39;;;;;;;23.05;15.07;;;1.40;1.00;;;;;;5055063;28;20405;-68
2022/12/09 09:29:05;;;;;;;29.50;15.93;;;1.50;1.00;;;;;;5055701;28;20262;-68
2022/12/09 09:31:30;;;;;;;26.33;14.73;;;1.40;1.00;;;;;;5057071;28;20194;-68
2022/12/09 09:33:56;;;;;;;26.60;14.93;;;1.50;1.00;;;;;;5056783;28;20195;-69
2022/12/09 09:36:23;;;;;;;36.73;14.90;;;1.40;1.00;;;;;;5055814;28;20186;-69
2022/12/09 09:38:50;;;;;;;26.45;15.70;;;1.40;1.00;;;;;;5056695;28;20194;-69
2022/12/09 09:41:26;;;;;;;32.88;14.82;;;1.40;1.00;;;;;;5056797;28;20202;-68
2022/12/09 09:43:54;;;;;;;29.10;15.38;;;1.30;1.00;;;;;;5056655;28;20179;-69
2022/12/09 09:46:29;;;;;;;26.05;17.05;;;1.30;1.00;;;;;;5054668;28;20175;-69
2022/12/09 09:48:55;;;;;;;28.45;16.98;;;1.40;1.00;;;;;;5056453;28;20176;-68
2022/12/09 09:51:21;;;;;;;22.23;13.50;;;1.40;1.00;;;;;;5056650;28;20190;-68
2022/12/09 09:53:50;;;;;;;28.90;16.03;;;1.30;1.00;;;;;;5056622;28;20190;-70
2022/12/09 09:56:33;;;;;;;28.55;15.50;;;1.40;1.00;;;;;;5055754;28;20207;-68
2022/12/09 09:59:18;;;;;;;27.60;15.98;;;1.40;1.00;;;;;;5055161;28;20178;-68
2022/12/09 10:01:55;;;;;;;30.77;16.23;;;1.40;1.00;;;;;;5056402;28;20713;-68
2022/12/09 10:04:56;;;;;;;22.77;13.13;;;1.40;1.00;;;;;;5055741;28;20194;-69
2022/12/09 10:07:44;;;;;;;29.77;15.88;;;1.30;1.00;;;;;;5013593;28;20431;-68
2022/12/09 10:10:31;;;;;;;28.67;15.20;;;1.40;1.00;;;;;;5056465;28;20190;-68
2022/12/09 10:13:19;;;;;;;32.60;16.10;;;1.40;1.00;;;;;;5055074;28;20256;-69
2022/12/09 10:16:13;;;;;;;25.90;15.57;;;1.50;1.00;;;;;;5055338;28;20232;-69
2022/12/09 10:19:01;;;;;;;28.17;14.77;;;1.40;1.00;;;;;;5055313;28;20524;-68
2022/12/09 10:21:29;;;;;;;31.00;16.17;;;1.50;1.00;;;;;;5055224;28;20511;-69
2022/12/09 10:23:56;;;;;;;24.83;14.73;;;1.40;1.00;;;;;;5055944;28;20547;-69
2022/12/09 10:26:26;;;;;;;23.05;15.18;;;1.50;1.00;;;;;;5055231;28;20534;-68
2022/12/09 10:29:38;;;;;;;29.67;16.63;;;1.50;1.00;;;;;;5055842;28;20217;-68
2022/12/09 10:32:04;;;;;;;27.65;15.32;;;1.50;1.00;;;;;;5038403;28;20183;-68
2022/12/09 10:34:30;;;;;;;23.70;15.23;;;1.50;1.00;;;;;;5055010;28;20195;-68
2022/12/09 10:36:56;;;;;;;23.17;15.23;;;1.50;1.00;;;;;;5055625;28;20420;-68
2022/12/09 10:39:21;;;;;;;31.37;15.20;;;1.50;1.00;;;;;;5054354;28;20167;-68
2022/12/09 10:44:40;;;;;;;22.30;12.73;;;1.60;1.00;;;;;;5054844;28;20190;-68
2022/12/09 10:47:24;;;;;;;20.73;13.70;;;1.60;1.00;;;;;;5055327;28;20422;-69
2022/12/09 10:49:52;;;;;;;17.95;12.70;;;1.60;1.00;;;;;;5055614;28;20408;-68
2022/12/09 10:52:38;;;;;;;25.00;15.60;;;1.60;1.00;;;;;;5055368;28;20175;-72
2022/12/09 10:55:04;;;;;;;20.27;13.27;;;1.70;1.00;;;;;;5053259;28;20437;-73
2022/12/09 10:57:30;;;;;;;19.98;12.85;;;1.70;1.00;;;;;;5055210;28;20405;-72
2022/12/09 11:00:05;;;;;;;27.77;13.30;;;1.70;1.00;;;;;;5053914;28;20202;-72
2022/12/09 11:02:32;;;;;;;21.25;12.63;;;1.70;1.00;;;;;;5055346;28;20188;-72
2022/12/09 11:05:21;;;;;;;25.50;14.35;;;1.60;1.00;;;;;;5054430;28;20214;-72
2022/12/09 11:07:48;;;;;;;37.50;15.73;;;1.60;1.00;;;;;;5055222;28;20620;-73
2022/12/09 11:10:19;;;;;;;19.08;13.15;;;1.60;1.00;;;;;;5055199;28;20792;-73
2022/12/09 11:12:49;;;;;;;24.50;15.10;;;1.60;1.00;;;;;;5055187;28;20186;-71
2022/12/09 11:15:24;;;;;;;23.07;11.80;;;1.70;1.00;;;;;;5054136;28;20475;-67
2022/12/09 11:18:02;;;;;;;21.80;13.90;;;1.80;1.00;;;;;;5053971;28;20420;-68
2022/12/09 11:20:30;;;;;;;31.70;15.67;;;1.80;1.00;;;;;;5054830;28;20454;-68
2022/12/09 11:23:16;;;;;;;24.13;13.43;;;1.70;1.00;;;;;;5054970;28;20393;-69
2022/12/09 11:26:21;;;;;;;19.73;11.77;;;1.70;1.00;;;;;;5054087;28;20186;-68
2022/12/09 11:29:03;;;;;;;17.60;11.37;;;1.70;1.00;;;;;;5042579;28;20183;-69
2022/12/09 11:31:32;;;;;;;28.27;13.27;;;1.80;1.00;;;;;;5054146;28;20494;-69
2022/12/09 11:34:01;;;;;;;16.33;9.73;;;1.80;1.00;;;;;;5054186;28;20594;-69
2022/12/09 11:36:44;;;;;;;19.17;11.47;;;1.70;1.00;;;;;;5054082;28;20409;-68
2022/12/09 11:39:19;;;;;;;20.90;13.30;;;1.70;1.00;;;;;;5054505;28;20447;-69
2022/12/09 11:44:32;;;;;;;17.77;12.00;;;1.90;1.00;;;;;;5054023;28;20554;-68
2022/12/09 11:47:04;;;;;;;19.10;11.45;;;1.90;1.00;;;;;;5054468;28;20540;-69
2022/12/09 11:49:34;;;;;;;22.42;11.13;;;1.90;1.00;;;;;;5053851;28;20167;-70
2022/12/09 11:52:24;;;;;;;21.83;11.40;;;1.90;1.00;;;;;;5054268;28;20171;-68
2022/12/09 11:55:08;;;;;;;17.03;10.80;;;1.90;1.00;;;;;;5053604;28;20271;-69
2022/12/09 11:57:37;;;;;;;17.77;10.27;;;1.90;1.00;;;;;;5052768;28;20416;-69
2022/12/09 12:00:16;;;;;;;18.17;10.70;;;1.90;1.00;;;;;;5053014;28;20210;-68
2022/12/09 12:02:58;;;;;;;16.27;11.13;;;1.80;1.00;;;;;;5054270;28;20421;-69
2022/12/09 12:05:34;;;;;;;19.35;10.23;;;1.90;1.00;;;;;;5053319;28;20206;-68
2022/12/09 12:08:13;;;;;;;17.60;11.82;;;1.90;1.00;;;;;;5054076;28;20158;-68
2022/12/09 12:10:46;;;;;;;24.65;13.23;;;1.90;1.00;;;;;;5054004;28;20190;-69
2022/12/09 12:13:35;;;;;;;22.10;13.60;;;1.90;1.00;;;;;;5053897;28;20171;-68
2022/12/09 12:16:07;;;;;;;19.20;11.63;;;1.90;1.00;;;;;;5053251;28;20282;-68
2022/12/09 12:18:49;;;;;;;22.40;10.87;;;1.90;1.00;;;;;;5053833;28;20246;-69
2022/12/09 12:21:17;;;;;;;23.53;12.57;;;2.00;1.00;;;;;;5053669;28;20453;-69
2022/12/09 12:24:13;;;;;;;19.48;11.45;;;2.10;1.00;;;;;;5053650;28;20413;-69
2022/12/09 12:27:00;;;;;;;21.33;11.93;;;2.00;1.00;;;;;;5052276;28;20222;-68
2022/12/09 12:29:45;;;;;;;15.07;11.70;;;2.00;1.00;;;;;;5053645;28;20417;-68
2022/12/09 12:32:31;;;;;;;19.70;11.03;;;2.00;1.00;;;;;;5053522;28;20835;-69
2022/12/09 12:35:05;;;;;;;15.18;9.90;;;2.00;1.00;;;;;;5052955;28;20409;-69
2022/12/09 12:37:50;;;;;;;20.07;11.80;;;2.00;1.00;;;;;;5053457;28;20242;-68
2022/12/09 12:40:24;;;;;;;24.13;13.03;;;1.90;1.00;;;;;;5053318;28;20444;-69
2022/12/09 12:46:17;;;;;;;23.00;12.63;;;2.10;1.00;;;;;;5052727;28;20435;-68
2022/12/09 12:49:12;;;;;;;20.07;10.73;;;2.10;1.00;;;;;;5053334;28;20910;-68
2022/12/09 12:52:00;;;;;;;22.97;13.20;;;2.10;1.00;;;;;;5052086;28;20408;-68
2022/12/09 12:54:53;;;;;;;25.77;13.17;;;2.20;1.00;;;;;;5052513;28;20425;-69
2022/12/09 12:57:26;;;;;;;24.00;12.33;;;2.20;1.00;;;;;;5053406;28;20428;-70
2022/12/09 13:00:20;;;;;;;17.83;11.57;;;2.20;1.00;;;;;;5053168;28;20540;-68
2022/12/09 13:03:04;;;;;;;22.57;13.40;;;2.20;1.00;;;;;;5053363;28;20394;-68
2022/12/09 13:05:43;;;;;;;20.90;13.00;;;2.20;1.00;;;;;;5052461;28;20467;-69
2022/12/09 13:08:37;;;;;;;24.37;13.00;;;2.30;1.00;;;;;;5053298;28;20456;-69
2022/12/09 13:11:18;;;;;;;25.77;13.33;;;2.30;1.00;;;;;;5053309;28;20429;-68
2022/12/09 13:13:51;;;;;;;23.13;13.83;;;2.30;1.00;;;;;;5052095;28;20437;-68